Time;durP1;ratioP1;P1;durP2;ratioP2;P2;SDS_P1;SDS_P2;PMS_P1;PMS_P2;Temp;Humidity;BMP_temperature;BMP_pressure;BME280_temperature;BME280_humidity;BME280_pressure;Samples;Min_cycle;Max_cycle;Signal;HPM_P1;HPM_P2
2021/10/26 06:25:58;;;;;;;;;12.75;11.00;;;;;11.34;72.24;101885.50;5010203;28;45411;-69
2021/10/26 06:28:24;;;;;;;;;11.75;10.50;;;;;11.47;71.87;101881.69;4974399;28;45283;-69
2021/10/26 06:30:49;;;;;;;;;10.75;10.00;;;;;11.61;71.60;101893.03;4974061;28;45350;-70
2021/10/26 06:33:15;;;;;;;;;10.50;8.00;;;;;11.66;71.49;101882.22;4973613;28;45402;-69
2021/10/26 06:35:40;;;;;;;;;12.75;11.00;;;;;11.80;71.18;101898.91;4963901;28;45232;-69
2021/10/26 06:38:05;;;;;;;;;7.50;7.00;;;;;11.81;70.64;101889.09;4973221;28;45156;-69
2021/10/26 06:40:31;;;;;;;;;9.00;6.25;;;;;11.92;70.78;101892.47;4972038;28;45454;-70
2021/10/26 06:42:57;;;;;;;;;9.25;8.75;;;;;11.95;70.35;101896.91;4973836;28;45422;-70
2021/10/26 06:45:23;;;;;;;;;10.00;8.25;;;;;12.01;70.05;101903.00;4973571;28;45553;-70
2021/10/26 06:47:48;;;;;;;;;11.25;8.50;;;;;12.02;70.20;101903.88;4972875;28;45561;-71
2021/10/26 06:50:14;;;;;;;;;10.25;6.75;;;;;12.10;70.08;101901.94;4978893;28;45329;-69
2021/10/26 06:52:39;;;;;;;;;11.25;10.75;;;;;12.14;69.74;101900.94;4971817;28;45506;-69
2021/10/26 06:55:06;;;;;;;;;10.00;8.00;;;;;12.16;69.87;101899.16;4977503;28;45315;-69
2021/10/26 06:57:32;;;;;;;;;8.25;6.50;;;;;12.25;70.09;101910.59;4973436;28;45574;-67
2021/10/26 06:59:57;;;;;;;;;9.25;7.00;;;;;12.27;69.70;101920.31;4973966;28;45262;-71
2021/10/26 07:02:23;;;;;;;;;9.00;9.00;;;;;12.31;69.81;101924.72;4973979;28;45301;-71
2021/10/26 07:04:48;;;;;;;;;11.50;10.50;;;;;12.34;69.76;101923.75;4973042;28;45263;-72
2021/10/26 07:07:14;;;;;;;;;8.50;8.50;;;;;12.39;69.72;101928.09;4972644;28;45216;-71
2021/10/26 07:09:39;;;;;;;;;8.00;8.00;;;;;12.40;69.67;101942.38;4973372;28;45434;-71
2021/10/26 07:12:05;;;;;;;;;13.50;10.50;;;;;12.42;69.56;101937.88;4972085;28;45306;-71
2021/10/26 07:14:31;;;;;;;;;10.75;9.25;;;;;12.44;70.35;101932.47;4971839;28;46878;-71
2021/10/26 07:16:56;;;;;;;;;7.75;7.75;;;;;12.45;69.73;101937.81;4988763;28;45523;-71
2021/10/26 07:19:22;;;;;;;;;10.50;10.50;;;;;12.48;69.85;101950.22;4972295;28;45358;-71
2021/10/26 07:21:48;;;;;;;;;11.75;11.75;;;;;12.50;69.86;101943.06;4971652;28;45613;-71
2021/10/26 07:24:14;;;;;;;;;12.75;10.25;;;;;12.49;69.75;101941.31;4971820;28;45640;-71
2021/10/26 07:26:40;;;;;;;;;13.25;12.00;;;;;12.57;69.78;101958.97;4972072;28;45405;-71
2021/10/26 07:29:06;;;;;;;;;14.75;11.50;;;;;12.59;70.00;101958.94;4972368;28;45397;-71
2021/10/26 07:31:32;;;;;;;;;12.00;12.00;;;;;12.57;70.20;101955.41;4971766;28;45432;-71
2021/10/26 07:33:59;;;;;;;;;10.25;9.75;;;;;12.60;70.16;101948.19;4971221;28;46057;-71
2021/10/26 07:36:30;;;;;;;;;11.50;11.50;;;;;12.64;70.20;101957.03;4963239;28;45429;-71
2021/10/26 07:39:06;;;;;;;;;12.00;10.25;;;;;12.70;69.85;101966.75;4959827;28;45365;-71
2021/10/26 07:41:31;;;;;;;;;15.25;12.75;;;;;12.77;70.17;101974.59;4974133;28;45914;-72
2021/10/26 07:43:57;;;;;;;;;13.75;12.75;;;;;12.84;70.13;101987.88;4959578;28;45744;-71
2021/10/26 07:46:22;;;;;;;;;16.00;15.50;;;;;12.82;70.13;101981.69;4958899;28;45341;-71
2021/10/26 07:48:48;;;;;;;;;16.75;14.50;;;;;12.89;70.00;101989.53;4959963;28;45390;-72
2021/10/26 07:51:13;;;;;;;;;13.75;13.25;;;;;12.95;70.33;101999.25;4958973;28;45582;-71
2021/10/26 07:53:39;;;;;;;;;16.25;15.25;;;;;12.98;70.20;101996.50;4958406;28;45464;-71
2021/10/26 07:56:06;;;;;;;;;17.75;14.75;;;;;12.99;70.73;101995.56;4958334;28;45410;-72
2021/10/26 07:58:34;;;;;;;;;13.75;13.00;;;;;13.03;70.24;102004.41;4974354;28;45344;-71
2021/10/26 08:00:59;;;;;;;;;13.75;12.25;;;;;13.04;69.89;102001.72;4959217;28;45408;-71
2021/10/26 08:03:25;;;;;;;;;17.00;12.75;;;;;13.03;70.17;102012.47;4994003;28;45504;-71
2021/10/26 08:05:50;;;;;;;;;21.75;16.00;;;;;13.06;70.40;102015.06;4956565;28;45793;-71
2021/10/26 08:08:17;;;;;;;;;13.75;9.50;;;;;13.07;70.56;102017.72;4959282;28;45299;-69
2021/10/26 08:10:43;;;;;;;;;16.00;15.50;;;;;13.05;70.31;102006.16;4958737;28;45383;-67
2021/10/26 08:13:09;;;;;;;;;15.75;15.25;;;;;13.03;70.68;101999.06;4959312;28;45429;-67
2021/10/26 08:15:34;;;;;;;;;16.00;14.50;;;;;13.05;70.45;102006.16;4958970;28;45325;-68
2021/10/26 08:18:00;;;;;;;;;14.00;13.00;;;;;13.08;70.62;102007.88;4974222;28;45189;-67
2021/10/26 08:20:25;;;;;;;;;17.75;15.00;;;;;13.11;70.95;102010.50;4959318;28;45205;-68
2021/10/26 08:22:52;;;;;;;;;16.00;14.75;;;;;13.13;70.37;102014.00;4958977;28;46162;-67
2021/10/26 08:25:26;;;;;;;;;14.25;14.00;;;;;13.11;70.52;101999.78;4971224;28;45704;-70
2021/10/26 08:27:55;;;;;;;;;18.25;15.50;;;;;13.19;70.66;102008.53;4959342;28;45406;-70
2021/10/26 08:30:32;;;;;;;;;13.50;13.50;;;;;13.23;70.68;102004.88;4959091;28;45545;-70
2021/10/26 08:33:17;;;;;;;;;18.00;14.50;;;;;13.23;70.81;102010.22;4958620;28;46099;-70
2021/10/26 08:35:43;;;;;;;;;15.50;13.25;;;;;13.24;70.85;102001.25;4958975;28;45648;-70
2021/10/26 08:38:09;;;;;;;;;11.50;11.50;;;;;13.24;70.61;101995.03;4959294;28;45315;-70
2021/10/26 08:40:37;;;;;;;;;14.25;13.50;;;;;13.24;70.66;101992.34;4959241;28;45512;-70
2021/10/26 08:43:08;;;;;;;;;14.25;14.25;;;;;13.29;70.86;101999.34;4974070;28;47279;-70
2021/10/26 08:45:36;;;;;;;;;16.50;15.50;;;;;13.32;70.95;102002.00;4973306;28;45844;-70
2021/10/26 08:48:05;;;;;;;;;12.25;11.00;;;;;13.36;70.55;102004.59;4964592;28;45492;-70
2021/10/26 08:50:34;;;;;;;;;13.50;13.25;;;;;13.36;70.89;102008.16;4957879;28;45506;-70
2021/10/26 08:52:59;;;;;;;;;11.25;10.00;;;;;13.36;70.44;102013.53;4953185;28;47539;-70
2021/10/26 08:55:25;;;;;;;;;14.50;14.50;;;;;13.35;70.38;102006.41;4949996;28;45418;-70
2021/10/26 08:57:50;;;;;;;;;15.50;14.75;;;;;13.37;70.51;102004.56;4957758;28;45326;-70
2021/10/26 09:00:21;;;;;;;;;14.25;11.00;;;;;13.39;70.39;102004.53;4958026;28;45414;-70
2021/10/26 09:02:49;;;;;;;;;13.00;11.75;;;;;13.41;70.61;102006.25;4957505;28;45301;-70
2021/10/26 09:05:24;;;;;;;;;15.25;13.75;;;;;13.41;70.25;101987.47;4956775;28;45558;-70
2021/10/26 09:08:05;;;;;;;;;16.75;12.50;;;;;13.48;70.52;102004.28;4957294;28;45491;-70
2021/10/26 09:10:32;;;;;;;;;15.25;12.25;;;;;13.49;70.24;102004.25;4973786;28;45620;-69
2021/10/26 09:18:37;;;;;;;;;10.50;10.25;;;;;13.55;70.17;101991.59;4959002;28;45428;-70
2021/10/26 09:21:02;;;;;;;;;11.75;11.75;;;;;13.63;70.20;102003.03;4958686;28;45301;-70
2021/10/26 09:23:28;;;;;;;;;10.75;9.25;;;;;13.71;69.99;102014.47;4958611;28;46138;-68
2021/10/26 09:25:55;;;;;;;;;11.50;10.75;;;;;13.74;70.04;102006.34;5010146;28;45321;-68
2021/10/26 09:28:21;;;;;;;;;11.75;11.00;;;;;13.78;69.56;102007.13;4958971;28;45375;-68
2021/10/26 09:31:08;;;;;;;;;8.00;8.00;;;;;13.80;69.44;101992.78;4958001;28;45417;-68
2021/10/26 09:33:36;;;;;;;;;8.25;8.25;;;;;13.84;69.43;102007.84;4958214;28;45681;-68
2021/10/26 09:36:28;;;;;;;;;9.75;8.75;;;;;13.90;69.17;102009.53;4958523;28;45520;-68
2021/10/26 09:39:10;;;;;;;;;9.25;7.25;;;;;13.91;68.90;102000.53;4962288;28;45792;-68
2021/10/26 09:41:51;;;;;;;;;11.75;9.00;;;;;13.95;69.26;102002.22;4972892;28;45308;-67
2021/10/26 09:44:19;;;;;;;;;8.00;7.75;;;;;13.99;69.00;101995.84;4956880;28;45243;-68
2021/10/26 09:47:03;;;;;;;;;11.00;10.00;;;;;14.02;69.28;101995.75;4958263;28;45341;-68
2021/10/26 09:49:34;;;;;;;;;11.50;9.00;;;;;14.04;69.01;101993.91;4958604;28;45513;-68
2021/10/26 09:52:16;;;;;;;;;10.00;8.00;;;;;14.09;68.93;101994.66;4958369;28;45330;-68
2021/10/26 09:54:45;;;;;;;;;10.00;10.00;;;;;14.14;68.81;101988.31;4958033;28;46059;-68
2021/10/26 09:57:15;;;;;;;;;8.50;8.50;;;;;14.17;68.93;101997.16;4958049;28;45448;-68
2021/10/26 09:59:54;;;;;;;;;10.25;9.75;;;;;14.20;68.98;101993.47;4958101;28;45389;-67
2021/10/26 10:02:24;;;;;;;;;10.00;8.00;;;;;14.20;69.13;101985.44;4957939;28;45369;-68
2021/10/26 10:04:56;;;;;;;;;7.25;7.00;;;;;14.20;68.90;101988.13;4957006;28;46216;-68
2021/10/26 10:07:31;;;;;;;;;7.50;7.50;;;;;14.27;68.87;102004.03;4958245;28;45500;-64
2021/10/26 10:09:59;;;;;;;;;6.00;6.00;;;;;14.29;68.37;101998.63;4958180;28;45515;-64
2021/10/26 10:12:26;;;;;;;;;6.00;5.00;;;;;14.30;68.41;102007.53;4958211;28;45334;-68
2021/10/26 10:14:54;;;;;;;;;8.75;5.75;;;;;14.34;68.51;102009.25;4958118;28;45588;-67
2021/10/26 10:17:25;;;;;;;;;6.25;5.00;;;;;14.35;68.39;102011.88;4957620;28;45320;-68
2021/10/26 10:19:52;;;;;;;;;8.50;8.00;;;;;14.37;68.50;102009.16;4958272;28;45252;-68
2021/10/26 10:22:21;;;;;;;;;5.25;5.00;;;;;14.38;68.24;102019.88;4957946;28;45418;-68
2021/10/26 10:24:50;;;;;;;;;7.25;6.00;;;;;14.44;68.52;102027.72;4970409;28;46886;-67
2021/10/26 10:27:18;;;;;;;;;11.00;9.00;;;;;14.43;68.36;102009.88;4975018;28;45475;-70
2021/10/26 10:29:44;;;;;;;;;5.00;5.00;;;;;14.48;68.00;102017.78;4958176;28;45255;-67
2021/10/26 10:32:12;;;;;;;;;7.75;6.00;;;;;14.50;68.10;102010.56;4956195;28;45434;-67
2021/10/26 10:34:38;;;;;;;;;6.00;5.25;;;;;14.55;68.50;102010.41;4957957;28;45264;-68
2021/10/26 10:37:04;;;;;;;;;7.25;5.25;;;;;14.59;68.02;102012.16;4957713;28;45149;-68
2021/10/26 10:39:35;;;;;;;;;8.50;6.00;;;;;14.63;68.02;102011.13;4957989;28;45307;-68
2021/10/26 10:42:12;;;;;;;;;9.00;8.00;;;;;14.69;68.44;102005.56;4957643;28;45346;-68
2021/10/26 10:44:40;;;;;;;;;6.50;6.00;;;;;14.71;68.23;102010.91;4957562;28;46410;-68
2021/10/26 10:47:10;;;;;;;;;5.00;5.00;;;;;14.77;68.45;102016.97;4972382;28;45408;-67
2021/10/26 10:49:35;;;;;;;;;8.00;7.00;;;;;14.82;68.06;102023.09;4957708;28;45468;-68
2021/10/26 10:52:04;;;;;;;;;7.67;5.67;;;;;14.88;68.03;102018.47;4957880;28;45365;-68
2021/10/26 10:54:39;;;;;;;;;7.00;4.00;;;;;14.90;67.67;102013.91;4957326;28;46179;-68
2021/10/26 10:57:27;;;;;;;;;6.00;5.00;;;;;14.95;67.71;102014.66;4956307;28;45299;-68
2021/10/26 10:59:58;;;;;;;;;6.25;4.50;;;;;14.98;67.57;102018.16;4972540;28;45467;-70
2021/10/26 11:02:36;;;;;;;;;6.00;5.00;;;;;15.01;67.62;102018.03;4957355;28;45332;-70
2021/10/26 11:05:04;;;;;;;;;5.00;5.00;;;;;14.99;67.49;102016.34;4955481;28;45454;-68
2021/10/26 11:07:57;;;;;;;;;5.00;4.00;;;;;15.06;67.63;102012.53;4955999;28;45626;-68
2021/10/26 11:10:23;;;;;;;;;4.25;4.00;;;;;15.08;67.61;102021.41;4955023;28;45464;-68
2021/10/26 11:12:50;;;;;;;;;4.25;4.25;;;;;15.08;67.40;102010.66;4959532;28;45651;-68
2021/10/26 11:15:42;;;;;;;;;5.00;5.00;;;;;15.11;67.51;102009.69;4960108;28;46306;-68
2021/10/26 11:18:07;;;;;;;;;6.00;5.00;;;;;15.15;67.35;102009.56;4960114;28;45628;-68
2021/10/26 11:20:37;;;;;;;;;6.50;4.75;;;;;15.17;67.55;102010.38;4960508;28;45578;-68
2021/10/26 11:23:05;;;;;;;;;5.00;5.00;;;;;15.19;67.77;102010.34;4960306;28;45449;-68
2021/10/26 11:25:39;;;;;;;;;4.00;4.00;;;;;15.21;67.73;101999.53;4990727;28;46433;-70
2021/10/26 11:28:15;;;;;;;;;2.00;2.00;;;;;15.26;67.68;101992.19;4960391;28;45421;-70
2021/10/26 11:30:47;;;;;;;;;6.00;4.50;;;;;15.28;67.57;101993.88;4959930;28;45173;-69
2021/10/26 11:33:12;;;;;;;;;3.00;3.00;;;;;15.30;67.45;101989.38;4959735;28;45303;-68
2021/10/26 11:35:53;;;;;;;;;4.00;4.00;;;;;15.32;67.52;101986.63;4959838;28;45983;-68
2021/10/26 11:38:28;;;;;;;;;5.25;3.25;;;;;15.32;67.51;101975.88;4960015;28;45279;-68
2021/10/26 11:40:57;;;;;;;;;3.00;3.00;;;;;15.35;67.57;101976.63;4972210;28;45346;-68
2021/10/26 11:43:24;;;;;;;;;5.50;4.50;;;;;15.41;67.60;101983.63;4959651;28;45544;-68
2021/10/26 11:46:01;;;;;;;;;3.25;3.25;;;;;15.46;67.14;101984.34;5036730;28;46074;-67
2021/10/26 11:48:50;;;;;;;;;3.00;3.00;;;;;15.50;67.14;101982.41;4962103;28;45480;-65
2021/10/26 11:51:34;;;;;;;;;3.00;3.00;;;;;15.53;66.57;101980.50;4953895;28;45450;-73
2021/10/26 11:54:15;;;;;;;;;3.00;2.00;;;;;15.55;66.68;101977.75;4953858;28;45928;-65
2021/10/26 11:56:44;;;;;;;;;4.25;3.00;;;;;15.59;66.51;101981.25;4951691;28;47108;-65
2021/10/26 11:59:15;;;;;;;;;3.50;3.50;;;;;15.61;66.69;101972.19;4954618;28;45855;-65
2021/10/26 12:01:49;;;;;;;;;3.00;3.00;;;;;15.65;66.42;101970.25;4948064;28;45454;-65
2021/10/26 12:04:21;;;;;;;;;4.75;3.25;;;;;15.64;66.27;101963.16;4954607;28;45926;-65
2021/10/26 12:06:48;;;;;;;;;4.50;2.50;;;;;15.69;66.16;101970.13;4955425;28;46133;-65
2021/10/26 12:09:15;;;;;;;;;3.50;3.25;;;;;15.69;66.24;101967.44;4955831;28;45363;-65
2021/10/26 12:11:44;;;;;;;;;3.75;3.75;;;;;15.74;66.11;101972.66;4955486;28;45477;-65
2021/10/26 12:14:20;;;;;;;;;5.25;3.75;;;;;15.76;66.24;101969.94;4955576;28;45590;-65
2021/10/26 12:17:07;;;;;;;;;5.00;4.00;;;;;15.81;66.22;101978.75;4975877;28;48329;-68
2021/10/26 12:19:40;;;;;;;;;4.50;4.00;;;;;15.80;66.20;101977.84;4970629;28;45859;-68
2021/10/26 12:22:10;;;;;;;;;4.00;4.00;;;;;15.81;66.31;101971.53;4955345;28;45588;-67
2021/10/26 12:24:36;;;;;;;;;3.00;3.00;;;;;15.84;66.17;101976.81;4954815;28;45640;-67
2021/10/26 12:27:06;;;;;;;;;3.00;3.00;;;;;15.87;66.18;101975.81;4956292;28;45719;-68
2021/10/26 12:29:37;;;;;;;;;5.75;3.00;;;;;15.90;66.08;101981.09;4954617;28;45967;-67
2021/10/26 12:32:07;;;;;;;;;4.00;4.00;;;;;15.85;65.75;101958.84;4955281;28;45641;-67
2021/10/26 12:34:38;;;;;;;;;3.25;3.25;;;;;15.87;65.77;101955.19;4955694;28;45399;-67
2021/10/26 12:37:33;;;;;;;;;4.00;3.75;;;;;15.93;65.77;101956.75;4969815;28;47307;-68
2021/10/26 12:40:09;;;;;;;;;4.00;3.00;;;;;15.96;65.37;101958.47;4970547;28;45771;-67
2021/10/26 12:42:43;;;;;;;;;3.00;3.00;;;;;15.95;65.44;101954.03;4951712;28;45519;-67
2021/10/26 12:45:15;;;;;;;;;3.00;3.00;;;;;15.97;65.36;101958.44;4955284;28;45398;-68
2021/10/26 12:48:01;;;;;;;;;3.50;2.50;;;;;16.01;65.51;101960.06;4959686;28;46453;-67
2021/10/26 12:50:49;;;;;;;;;6.00;4.00;;;;;15.98;65.62;101940.44;4955102;28;45381;-67
2021/10/26 12:53:19;;;;;;;;;4.50;4.25;;;;;16.03;65.49;101958.19;4954538;28;45601;-67
2021/10/26 12:55:53;;;;;;;;;8.25;7.75;;;;;16.01;65.48;101954.69;4953849;28;45842;-67
2021/10/26 12:58:37;;;;;;;;;6.00;4.25;;;;;16.00;66.03;101950.22;4955045;28;45909;-67
2021/10/26 13:01:05;;;;;;;;;9.25;8.50;;;;;16.04;65.63;101954.56;4942619;28;45688;-67
2021/10/26 13:03:31;;;;;;;;;7.50;6.00;;;;;16.05;65.53;101953.63;4952093;28;45504;-67
2021/10/26 13:06:03;;;;;;;;;5.50;5.50;;;;;16.07;65.69;101957.16;4954605;28;45467;-66
2021/10/26 13:08:28;;;;;;;;;10.00;9.00;;;;;16.07;65.60;101956.25;4953804;28;45761;-66
2021/10/26 13:10:54;;;;;;;;;7.50;7.50;;;;;16.08;65.33;101960.72;4955216;28;45436;-67
2021/10/26 13:13:19;;;;;;;;;6.50;6.50;;;;;16.11;65.56;101953.41;4954771;28;45896;-67
2021/10/26 13:15:47;;;;;;;;;7.00;6.00;;;;;16.12;65.77;101956.97;4954750;28;45544;-67
2021/10/26 13:18:24;;;;;;;;;9.50;8.25;;;;;16.17;65.78;101962.19;4954632;28;45633;-67
2021/10/26 13:20:54;;;;;;;;;4.75;4.75;;;;;16.16;65.65;101965.84;4954957;28;45487;-66
2021/10/26 13:23:19;;;;;;;;;4.00;2.75;;;;;16.19;65.59;101963.91;4969327;28;45580;-67
2021/10/26 13:25:48;;;;;;;;;4.50;4.00;;;;;16.21;65.31;101951.25;4961921;28;45493;-66
2021/10/26 13:28:19;;;;;;;;;4.75;4.75;;;;;16.26;65.64;101959.19;5014311;28;47431;-65
2021/10/26 13:30:47;;;;;;;;;3.00;3.00;;;;;16.24;65.41;101958.38;4958597;28;45757;-66
2021/10/26 13:33:12;;;;;;;;;2.00;2.00;;;;;16.28;65.36;101952.78;4953998;28;45490;-66
2021/10/26 13:35:41;;;;;;;;;3.00;3.00;;;;;16.30;65.63;101959.00;4969039;28;45795;-66
2021/10/26 13:38:06;;;;;;;;;3.00;2.75;;;;;16.32;65.24;101950.84;4952986;28;47458;-65
2021/10/26 13:40:32;;;;;;;;;3.00;3.00;;;;;16.34;65.78;101956.19;4948967;28;45783;-67
2021/10/26 13:42:57;;;;;;;;;4.50;2.25;;;;;16.31;65.38;101941.03;4956619;28;45307;-68
2021/10/26 13:45:23;;;;;;;;;4.00;4.00;;;;;16.36;65.45;101948.94;4957099;28;45393;-68
2021/10/26 13:47:48;;;;;;;;;4.00;3.00;;;;;16.31;65.42;101943.72;4972518;28;48051;-68
2021/10/26 13:50:15;;;;;;;;;5.25;4.00;;;;;16.32;65.27;101942.75;4958116;28;45641;-68
2021/10/26 13:52:41;;;;;;;;;5.00;3.00;;;;;16.35;65.29;101947.16;4957067;28;45452;-68
2021/10/26 13:55:08;;;;;;;;;3.50;2.25;;;;;16.37;65.47;101946.19;4957976;28;45549;-68
2021/10/26 13:57:38;;;;;;;;;5.00;4.50;;;;;16.34;65.41;101943.59;4958003;28;45414;-70
2021/10/26 14:00:09;;;;;;;;;5.25;3.50;;;;;16.35;65.38;101952.56;4958858;28;45267;-68
2021/10/26 14:02:36;;;;;;;;;4.00;4.00;;;;;16.35;65.18;101947.16;4948477;28;45403;-68
2021/10/26 14:05:03;;;;;;;;;5.00;5.00;;;;;16.40;65.51;101953.28;4957640;28;45331;-68
2021/10/26 14:07:29;;;;;;;;;3.50;3.50;;;;;16.41;65.27;101955.03;4976545;28;46464;-68
2021/10/26 14:09:54;;;;;;;;;3.00;3.00;;;;;16.42;65.52;101946.91;4960421;28;45157;-68
2021/10/26 14:12:19;;;;;;;;;4.25;4.00;;;;;16.43;65.58;101950.47;5007252;28;45536;-68
2021/10/26 14:14:45;;;;;;;;;4.75;3.75;;;;;16.47;65.53;101962.88;4956520;28;45332;-68
2021/10/26 14:17:10;;;;;;;;;5.50;4.00;;;;;16.49;65.23;101955.63;4972399;28;47073;-68
2021/10/26 14:19:35;;;;;;;;;2.75;2.75;;;;;16.49;65.18;101951.09;4957669;28;45257;-68
2021/10/26 14:22:02;;;;;;;;;5.00;4.75;;;;;16.55;65.24;101958.06;4956836;28;45327;-68
2021/10/26 14:24:32;;;;;;;;;4.50;3.00;;;;;16.57;65.66;101956.22;4960969;28;45383;-68
2021/10/26 14:27:01;;;;;;;;;5.75;5.00;;;;;16.57;65.41;101956.22;4984259;28;48239;-68
2021/10/26 14:29:27;;;;;;;;;4.00;4.00;;;;;16.58;65.45;101955.25;4991474;28;45477;-68
2021/10/26 14:31:52;;;;;;;;;3.25;2.50;;;;;16.57;65.91;101950.81;4957017;28;45441;-68
2021/10/26 14:34:20;;;;;;;;;6.50;5.00;;;;;16.59;65.62;101956.13;4957641;28;45272;-68
2021/10/26 14:36:55;;;;;;;;;4.00;3.25;;;;;16.60;65.69;101957.91;4972686;28;47847;-67
2021/10/26 14:53:06;;;;;;;;;3.00;3.00;;;;;16.64;65.46;101973.03;4959943;28;45290;-68
2021/10/26 14:55:57;;;;;;;;;2.75;2.75;;;;;16.61;65.79;101960.53;4955597;28;45420;-68
2021/10/26 14:58:16;;;;;;;;;3.00;3.00;;;;;16.59;65.48;101961.53;4960245;28;45930;-68
2021/10/26 15:00:42;;;;;;;;;4.50;3.25;;;;;16.60;65.15;101957.91;4974578;28;45394;-68
2021/10/26 15:03:07;;;;;;;;;3.00;3.00;;;;;16.65;65.21;101962.16;4960315;28;45407;-68
2021/10/26 15:05:32;;;;;;;;;4.00;3.00;;;;;16.66;65.15;101957.69;4960253;28;45266;-67
2021/10/26 15:07:58;;;;;;;;;4.00;4.00;;;;;16.67;65.20;101963.00;4947280;28;45337;-70
2021/10/26 15:13:33;;;;;;;;;1.75;1.75;;;;;16.71;65.35;101962.91;4959455;28;45308;-68
2021/10/26 15:15:59;;;;;;;;;4.00;4.00;;;;;16.72;65.30;101954.72;4959824;28;45770;-67
2021/10/26 15:18:24;;;;;;;;;4.00;3.00;;;;;16.74;65.26;101962.75;4974974;28;47575;-67
2021/10/26 15:20:51;;;;;;;;;4.00;4.00;;;;;16.72;65.35;101961.94;4956734;28;45409;-67
2021/10/26 15:33:48;;;;;;;;;3.00;3.00;;;;;16.73;65.28;101961.88;5020686;28;45394;-67
2021/10/26 15:36:13;;;;;;;;;3.75;2.75;;;;;16.76;65.12;101967.16;4975349;28;45501;-69
2021/10/26 15:38:40;;;;;;;;;2.50;2.50;;;;;16.73;64.87;101969.97;4971740;28;45999;-70
2021/10/26 15:41:05;;;;;;;;;2.75;2.50;;;;;16.77;64.86;101976.13;4975018;28;45316;-67
2021/10/26 15:43:35;;;;;;;;;2.00;2.00;;;;;16.76;64.63;101980.63;4959771;28;45293;-67
2021/10/26 15:46:02;;;;;;;;;2.25;2.25;;;;;16.74;64.65;101984.31;4959704;28;45469;-67
2021/10/26 15:48:28;;;;;;;;;2.00;2.00;;;;;16.77;64.51;101986.91;4959466;28;46329;-68
2021/10/26 15:50:53;;;;;;;;;2.00;2.00;;;;;16.78;64.30;101989.53;4959967;28;45311;-67
2021/10/26 15:53:19;;;;;;;;;2.00;2.00;;;;;16.77;64.78;101990.50;4958625;28;45458;-67
2021/10/26 15:55:45;;;;;;;;;4.00;2.00;;;;;16.76;64.55;101987.88;4957017;28;45463;-65
2021/10/26 15:58:11;;;;;;;;;3.75;2.75;;;;;16.76;64.56;101996.81;4959082;28;46127;-67
2021/10/26 16:00:37;;;;;;;;;3.00;3.00;;;;;16.77;64.80;101993.19;4958511;28;45488;-67
2021/10/26 16:03:04;;;;;;;;;3.00;3.00;;;;;16.74;64.71;101987.91;4959073;28;45527;-67
2021/10/26 16:05:30;;;;;;;;;3.00;3.00;;;;;16.78;64.57;101997.63;4958997;28;45560;-67
2021/10/26 16:07:58;;;;;;;;;3.00;3.00;;;;;16.78;64.78;102002.16;4946209;28;46252;-67
2021/10/26 16:10:41;;;;;;;;;3.50;3.50;;;;;16.78;64.76;102002.16;4959604;28;45433;-67
2021/10/26 16:13:59;;;;;;;;;4.00;3.25;;;;;16.75;64.64;101999.56;4961191;28;45405;-66
2021/10/26 16:18:27;;;;;;;;;3.25;3.25;;;;;16.77;64.51;102009.38;4958573;28;46187;-66
2021/10/26 16:20:53;;;;;;;;;2.75;2.75;;;;;16.79;64.66;102012.88;4974419;28;45189;-67
2021/10/26 16:23:19;;;;;;;;;4.00;4.00;;;;;16.77;64.55;102003.97;4959397;28;45437;-67
2021/10/26 16:25:45;;;;;;;;;4.00;3.75;;;;;16.77;64.71;102001.28;4995235;28;45399;-64
2021/10/26 16:28:11;;;;;;;;;3.00;2.75;;;;;16.76;64.98;102018.38;4981184;28;45761;-66
2021/10/26 16:30:37;;;;;;;;;4.00;4.00;;;;;16.73;64.93;102013.09;4956488;28;45336;-66
2021/10/26 16:33:03;;;;;;;;;4.50;4.50;;;;;16.75;64.80;102016.63;4957362;28;45519;-66
2021/10/26 16:35:29;;;;;;;;;4.50;3.50;;;;;16.76;65.20;102022.91;4957498;28;45420;-67
2021/10/26 16:37:54;;;;;;;;;6.00;3.00;;;;;16.76;64.98;102025.63;4957930;28;45406;-66
2021/10/26 16:40:21;;;;;;;;;2.75;2.00;;;;;16.73;64.72;102018.50;4959778;28;45487;-66
2021/10/26 16:45:30;;;;;;;;;3.75;3.00;;;;;16.72;64.98;102024.81;4957967;28;45383;-66
2021/10/26 16:47:59;;;;;;;;;5.50;5.00;;;;;16.75;65.14;102018.44;4952776;28;45517;-67
2021/10/26 16:50:26;;;;;;;;;4.00;4.00;;;;;16.75;64.86;102022.00;4972026;28;45557;-66
2021/10/26 16:52:51;;;;;;;;;4.50;2.75;;;;;16.74;65.06;102031.06;4954686;28;45533;-66
2021/10/26 16:55:17;;;;;;;;;3.00;3.00;;;;;16.71;64.85;102024.91;4957818;28;45477;-66
2021/10/26 16:57:42;;;;;;;;;3.25;3.00;;;;;16.68;64.86;102032.16;4957522;28;45483;-66
2021/10/26 17:00:11;;;;;;;;;4.75;4.75;;;;;16.66;65.04;102028.63;4957257;28;45807;-66
2021/10/26 17:02:41;;;;;;;;;4.25;4.25;;;;;16.65;65.05;102043.03;4954268;28;45438;-67
2021/10/26 17:05:07;;;;;;;;;5.00;3.00;;;;;16.65;64.76;102036.78;4957303;28;45600;-66
2021/10/26 17:07:36;;;;;;;;;7.25;4.00;;;;;16.65;64.96;102036.78;4956134;28;45961;-66
2021/10/26 17:10:01;;;;;;;;;3.00;3.00;;;;;16.68;65.03;102047.47;4956338;28;45571;-66
2021/10/26 17:12:30;;;;;;;;;3.25;3.25;;;;;16.70;64.67;102056.34;4956577;28;45364;-66
2021/10/26 17:14:55;;;;;;;;;3.00;3.00;;;;;16.70;64.68;102060.88;4957087;28;45460;-66
2021/10/26 17:17:21;;;;;;;;;4.00;4.00;;;;;16.66;64.71;102055.59;4956940;28;45879;-67
2021/10/26 17:19:46;;;;;;;;;2.75;2.50;;;;;16.68;64.79;102055.53;4955823;28;45469;-69
2021/10/26 17:22:12;;;;;;;;;5.00;4.00;;;;;16.62;64.94;102047.66;4957248;28;45354;-67
2021/10/26 17:24:38;;;;;;;;;4.50;4.50;;;;;16.66;64.43;102055.59;4963483;28;45966;-67
2021/10/26 17:27:06;;;;;;;;;3.00;3.00;;;;;16.66;64.60;102066.38;4963172;28;46091;-67
2021/10/26 17:29:37;;;;;;;;;4.00;3.75;;;;;16.67;64.77;102064.56;4956285;28;45498;-66
2021/10/26 17:32:03;;;;;;;;;4.00;4.00;;;;;16.65;64.33;102063.75;4957197;28;45648;-66
2021/10/26 17:34:28;;;;;;;;;3.50;2.75;;;;;16.64;64.72;102065.56;4957285;28;45677;-67
2021/10/26 17:36:54;;;;;;;;;4.75;3.00;;;;;16.62;64.47;102061.16;4957271;28;46653;-66
2021/10/26 17:39:19;;;;;;;;;4.50;4.00;;;;;16.63;64.53;102054.84;4957251;28;45323;-69
2021/10/26 17:41:44;;;;;;;;;5.00;5.00;;;;;16.62;64.29;102061.16;4957040;28;45364;-69
2021/10/26 17:44:14;;;;;;;;;5.50;4.25;;;;;16.59;64.63;102064.84;4957228;28;45375;-68
2021/10/26 17:46:39;;;;;;;;;4.00;4.00;;;;;16.59;64.67;102070.25;4953739;28;45489;-66
2021/10/26 17:49:05;;;;;;;;;4.25;4.25;;;;;16.59;64.32;102072.03;4947655;28;45424;-66
2021/10/26 17:51:31;;;;;;;;;3.50;3.50;;;;;16.56;64.64;102070.34;4963744;28;47207;-66
2021/10/26 17:53:59;;;;;;;;;6.00;6.00;;;;;16.56;64.74;102066.78;4949489;28;45535;-67
2021/10/26 17:56:26;;;;;;;;;7.75;7.00;;;;;16.56;65.05;102067.66;4972709;28;47174;-69
2021/10/26 17:58:51;;;;;;;;;5.50;4.25;;;;;16.54;65.02;102069.53;4954543;28;45801;-67
2021/10/26 18:01:18;;;;;;;;;6.50;5.00;;;;;16.54;65.25;102066.84;4989119;28;45448;-72
2021/10/26 18:03:46;;;;;;;;;5.00;5.00;;;;;16.50;65.06;102065.19;4952854;28;45826;-72
2021/10/26 18:06:11;;;;;;;;;5.75;5.00;;;;;16.52;65.06;102078.59;4953827;28;46323;-72
2021/10/26 18:08:38;;;;;;;;;3.00;3.00;;;;;16.46;65.15;102064.41;4956577;28;45535;-79
2021/10/26 18:11:05;;;;;;;;;4.50;4.25;;;;;16.48;65.17;102072.44;4965315;28;45603;-73
2021/10/26 18:13:34;;;;;;;;;8.25;7.50;;;;;16.44;65.05;102073.50;4968931;28;45580;-68
2021/10/26 18:16:02;;;;;;;;;5.00;5.00;;;;;16.46;64.79;102077.03;4953670;28;45485;-72
2021/10/26 18:18:27;;;;;;;;;7.50;6.00;;;;;16.40;64.87;102067.31;4954215;28;45428;-72
2021/10/26 18:20:52;;;;;;;;;6.75;6.75;;;;;16.44;64.85;102082.47;4953883;28;45626;-73
2021/10/26 18:23:18;;;;;;;;;5.75;5.75;;;;;16.44;64.78;102079.78;4969145;28;45422;-68
2021/10/26 18:25:43;;;;;;;;;6.75;6.00;;;;;16.47;64.77;102086.84;4953323;28;45488;-66
2021/10/26 18:28:09;;;;;;;;;5.25;4.75;;;;;16.43;64.73;102079.81;4953524;28;45781;-67
2021/10/26 18:30:34;;;;;;;;;6.00;5.00;;;;;16.46;64.56;102085.97;4959999;28;45840;-69
2021/10/26 18:33:00;;;;;;;;;7.50;6.00;;;;;16.42;64.75;102083.44;4964385;28;45748;-69